Terminal Aerodrome Forecast
Issued by NWS Tuscon, AZ

Home | Current Version | Previous Version | Text Only | Print | Product List | Glossary On
Versions: 1 2 3 4 5 6 7 8 9 10 11 12
000
FTUS45 KTWC 302300
TAFTUS
TAF
KTUS 302322Z 3100/3124 29008KT P6SM FEW100
     FM310200 23005KT P6SM SKC
     FM310700 14007KT P6SM SKC
     FM312000 25010KT P6SM SCT100=

USA.gov is the U.S. government's official web portal to all federal, state and local government web resources and services.